sensor_id;sensor_type;location;lat;lon;timestamp;temperature;humidity
18189;DHT22;9219;50.396;8.546;2023-03-14T00:00:08;10.60;99.90
18189;DHT22;9219;50.396;8.546;2023-03-14T00:02:59;10.90;99.90
18189;DHT22;9219;50.396;8.546;2023-03-14T00:08:40;11.00;99.90
18189;DHT22;9219;50.396;8.546;2023-03-14T00:11:13;11.10;99.90
18189;DHT22;9219;50.396;8.546;2023-03-14T00:13:46;11.20;99.90
18189;DHT22;9219;50.396;8.546;2023-03-14T00:16:22;10.90;99.90
18189;DHT22;9219;50.396;8.546;2023-03-14T00:18:52;10.70;99.90
18189;DHT22;9219;50.396;8.546;2023-03-14T00:21:24;10.60;99.90
18189;DHT22;9219;50.396;8.546;2023-03-14T00:23:57;10.40;99.90
18189;DHT22;9219;50.396;8.546;2023-03-14T00:26:25;10.50;99.90
18189;DHT22;9219;50.396;8.546;2023-03-14T00:28:56;10.70;99.90
18189;DHT22;9219;50.396;8.546;2023-03-14T00:36:36;10.60;99.90
18189;DHT22;9219;50.396;8.546;2023-03-14T00:39:04;10.30;99.90
18189;DHT22;9219;50.396;8.546;2023-03-14T00:41:31;10.40;99.90
18189;DHT22;9219;50.396;8.546;2023-03-14T00:44:00;10.50;99.90
18189;DHT22;9219;50.396;8.546;2023-03-14T00:46:30;10.30;99.90
18189;DHT22;9219;50.396;8.546;2023-03-14T00:48:59;10.40;99.90
18189;DHT22;9219;50.396;8.546;2023-03-14T00:51:27;10.00;99.90
18189;DHT22;9219;50.396;8.546;2023-03-14T00:53:55;10.20;99.90
18189;DHT22;9219;50.396;8.546;2023-03-14T01:01:57;10.60;99.90
18189;DHT22;9219;50.396;8.546;2023-03-14T01:04:53;10.80;99.90
18189;DHT22;9219;50.396;8.546;2023-03-14T01:07:20;10.90;99.90
18189;DHT22;9219;50.396;8.546;2023-03-14T01:09:51;10.80;99.90
18189;DHT22;9219;50.396;8.546;2023-03-14T01:12:23;10.60;99.90
18189;DHT22;9219;50.396;8.546;2023-03-14T01:14:52;10.30;99.90
18189;DHT22;9219;50.396;8.546;2023-03-14T01:17:22;10.40;99.90
18189;DHT22;9219;50.396;8.546;2023-03-14T01:19:49;10.50;99.90
18189;DHT22;9219;50.396;8.546;2023-03-14T01:25:35;10.30;99.90
18189;DHT22;9219;50.396;8.546;2023-03-14T01:31:10;10.40;99.90
18189;DHT22;9219;50.396;8.546;2023-03-14T01:34:07;10.40;99.90
18189;DHT22;9219;50.396;8.546;2023-03-14T01:36:48;10.30;99.90
18189;DHT22;9219;50.396;8.546;2023-03-14T01:39:24;10.40;99.90
18189;DHT22;9219;50.396;8.546;2023-03-14T01:41:52;10.20;99.90
18189;DHT22;9219;50.396;8.546;2023-03-14T01:44:48;10.20;99.90
18189;DHT22;9219;50.396;8.546;2023-03-14T01:47:51;10.20;99.90
18189;DHT22;9219;50.396;8.546;2023-03-14T01:53:24;9.90;99.90
18189;DHT22;9219;50.396;8.546;2023-03-14T01:56:00;9.90;99.90
18189;DHT22;9219;50.396;8.546;2023-03-14T01:58:31;10.20;99.90
18189;DHT22;9219;50.396;8.546;2023-03-14T02:01:03;10.10;99.90
18189;DHT22;9219;50.396;8.546;2023-03-14T02:03:44;10.00;99.90
18189;DHT22;9219;50.396;8.546;2023-03-14T02:06:31;10.00;99.90
18189;DHT22;9219;50.396;8.546;2023-03-14T02:09:16;10.20;99.90
18189;DHT22;9219;50.396;8.546;2023-03-14T02:12:05;10.20;99.90
18189;DHT22;9219;50.396;8.546;2023-03-14T02:22:14;10.40;99.90
18189;DHT22;9219;50.396;8.546;2023-03-14T02:25:00;10.30;99.90
18189;DHT22;9219;50.396;8.546;2023-03-14T02:27:45;10.30;99.90
18189;DHT22;9219;50.396;8.546;2023-03-14T02:30:29;10.20;99.90
18189;DHT22;9219;50.396;8.546;2023-03-14T02:33:04;9.80;99.90
18189;DHT22;9219;50.396;8.546;2023-03-14T02:35:45;9.70;99.90
18189;DHT22;9219;50.396;8.546;2023-03-14T02:38:23;10.00;99.90
18189;DHT22;9219;50.396;8.546;2023-03-14T02:46:08;10.00;99.90
18189;DHT22;9219;50.396;8.546;2023-03-14T02:48:39;10.30;99.90
18189;DHT22;9219;50.396;8.546;2023-03-14T02:51:08;10.30;99.90
18189;DHT22;9219;50.396;8.546;2023-03-14T02:53:38;10.00;99.90
18189;DHT22;9219;50.396;8.546;2023-03-14T02:56:09;9.90;99.90
18189;DHT22;9219;50.396;8.546;2023-03-14T02:58:38;9.90;99.90
18189;DHT22;9219;50.396;8.546;2023-03-14T03:01:28;10.00;99.90
18189;DHT22;9219;50.396;8.546;2023-03-14T03:03:57;10.30;99.90
18189;DHT22;9219;50.396;8.546;2023-03-14T03:11:41;9.90;99.90
18189;DHT22;9219;50.396;8.546;2023-03-14T03:14:08;9.90;99.90
18189;DHT22;9219;50.396;8.546;2023-03-14T03:16:43;9.90;99.90
18189;DHT22;9219;50.396;8.546;2023-03-14T03:19:14;10.00;99.90
18189;DHT22;9219;50.396;8.546;2023-03-14T03:21:43;10.20;99.90
18189;DHT22;9219;50.396;8.546;2023-03-14T03:24:16;10.50;99.90
18189;DHT22;9219;50.396;8.546;2023-03-14T03:26:52;10.70;99.90
18189;DHT22;9219;50.396;8.546;2023-03-14T03:29:38;10.70;99.90
18189;DHT22;9219;50.396;8.546;2023-03-14T03:34:44;10.40;99.90
18189;DHT22;9219;50.396;8.546;2023-03-14T03:37:12;10.10;99.90
18189;DHT22;9219;50.396;8.546;2023-03-14T03:39:40;10.00;99.90
18189;DHT22;9219;50.396;8.546;2023-03-14T03:42:08;10.20;99.90
18189;DHT22;9219;50.396;8.546;2023-03-14T03:44:39;10.00;99.90
18189;DHT22;9219;50.396;8.546;2023-03-14T03:47:16;9.90;99.90
18189;DHT22;9219;50.396;8.546;2023-03-14T03:49:45;10.10;99.90
18189;DHT22;9219;50.396;8.546;2023-03-14T03:52:22;10.20;99.90
18189;DHT22;9219;50.396;8.546;2023-03-14T03:57:44;10.10;99.90
18189;DHT22;9219;50.396;8.546;2023-03-14T04:00:19;10.00;99.90
18189;DHT22;9219;50.396;8.546;2023-03-14T04:02:48;9.90;99.90
18189;DHT22;9219;50.396;8.546;2023-03-14T04:05:16;9.90;99.90
18189;DHT22;9219;50.396;8.546;2023-03-14T04:07:44;10.00;99.90
18189;DHT22;9219;50.396;8.546;2023-03-14T04:10:14;10.00;99.90
18189;DHT22;9219;50.396;8.546;2023-03-14T04:12:47;9.90;99.90
18189;DHT22;9219;50.396;8.546;2023-03-14T04:20:25;9.90;99.90
18189;DHT22;9219;50.396;8.546;2023-03-14T04:22:52;10.30;99.90
18189;DHT22;9219;50.396;8.546;2023-03-14T04:25:20;10.10;99.90
18189;DHT22;9219;50.396;8.546;2023-03-14T04:27:47;9.90;99.90
18189;DHT22;9219;50.396;8.546;2023-03-14T04:30:18;9.80;99.90
18189;DHT22;9219;50.396;8.546;2023-03-14T04:32:51;9.80;99.90
18189;DHT22;9219;50.396;8.546;2023-03-14T04:35:19;9.80;99.90
18189;DHT22;9219;50.396;8.546;2023-03-14T04:37:49;9.80;99.90
18189;DHT22;9219;50.396;8.546;2023-03-14T04:45:09;10.10;99.90
18189;DHT22;9219;50.396;8.546;2023-03-14T04:47:43;9.90;99.90
18189;DHT22;9219;50.396;8.546;2023-03-14T04:50:11;9.80;99.90
18189;DHT22;9219;50.396;8.546;2023-03-14T04:52:42;10.00;99.90
18189;DHT22;9219;50.396;8.546;2023-03-14T04:55:17;10.10;99.90
18189;DHT22;9219;50.396;8.546;2023-03-14T04:57:49;10.00;99.90
18189;DHT22;9219;50.396;8.546;2023-03-14T05:00:21;9.90;99.90
18189;DHT22;9219;50.396;8.546;2023-03-14T05:07:52;9.90;99.90
18189;DHT22;9219;50.396;8.546;2023-03-14T05:10:24;9.90;99.90
18189;DHT22;9219;50.396;8.546;2023-03-14T05:13:02;10.00;99.90
18189;DHT22;9219;50.396;8.546;2023-03-14T05:15:34;9.90;99.90
18189;DHT22;9219;50.396;8.546;2023-03-14T05:18:06;9.60;99.90
18189;DHT22;9219;50.396;8.546;2023-03-14T05:20:38;9.70;99.90
18189;DHT22;9219;50.396;8.546;2023-03-14T05:28:50;9.70;99.90
18189;DHT22;9219;50.396;8.546;2023-03-14T05:31:26;9.60;99.90
18189;DHT22;9219;50.396;8.546;2023-03-14T05:33:57;9.50;99.90
18189;DHT22;9219;50.396;8.546;2023-03-14T05:36:30;9.80;99.90
18189;DHT22;9219;50.396;8.546;2023-03-14T05:39:00;9.70;99.90
18189;DHT22;9219;50.396;8.546;2023-03-14T05:41:42;9.90;99.90
18189;DHT22;9219;50.396;8.546;2023-03-14T05:44:12;10.00;99.90
18189;DHT22;9219;50.396;8.546;2023-03-14T05:46:41;9.70;99.90
18189;DHT22;9219;50.396;8.546;2023-03-14T05:49:15;9.60;99.90
18189;DHT22;9219;50.396;8.546;2023-03-14T05:57:05;9.80;99.90
18189;DHT22;9219;50.396;8.546;2023-03-14T05:59:47;9.80;99.90
18189;DHT22;9219;50.396;8.546;2023-03-14T06:02:15;9.50;99.90
18189;DHT22;9219;50.396;8.546;2023-03-14T06:04:42;9.60;99.90
18189;DHT22;9219;50.396;8.546;2023-03-14T06:07:09;9.50;99.90
18189;DHT22;9219;50.396;8.546;2023-03-14T06:09:43;9.60;99.90
18189;DHT22;9219;50.396;8.546;2023-03-14T06:12:30;9.20;99.90
18189;DHT22;9219;50.396;8.546;2023-03-14T06:17:59;9.40;99.90
18189;DHT22;9219;50.396;8.546;2023-03-14T06:20:28;9.40;99.90
18189;DHT22;9219;50.396;8.546;2023-03-14T06:22:56;9.70;99.90
18189;DHT22;9219;50.396;8.546;2023-03-14T06:25:25;9.60;99.90
18189;DHT22;9219;50.396;8.546;2023-03-14T06:27:58;9.80;99.90
18189;DHT22;9219;50.396;8.546;2023-03-14T06:30:34;9.80;99.90
18189;DHT22;9219;50.396;8.546;2023-03-14T06:33:03;9.90;99.90
18189;DHT22;9219;50.396;8.546;2023-03-14T06:35:34;9.80;99.90
18189;DHT22;9219;50.396;8.546;2023-03-14T06:43:42;9.90;99.90
18189;DHT22;9219;50.396;8.546;2023-03-14T06:46:13;9.80;99.90
18189;DHT22;9219;50.396;8.546;2023-03-14T06:48:41;9.80;99.90
18189;DHT22;9219;50.396;8.546;2023-03-14T06:51:09;9.80;99.90
18189;DHT22;9219;50.396;8.546;2023-03-14T06:53:50;10.10;99.90
18189;DHT22;9219;50.396;8.546;2023-03-14T06:56:20;10.10;99.90
18189;DHT22;9219;50.396;8.546;2023-03-14T06:58:53;9.80;99.90
18189;DHT22;9219;50.396;8.546;2023-03-14T07:06:38;9.50;99.90
18189;DHT22;9219;50.396;8.546;2023-03-14T07:09:09;9.90;99.90
18189;DHT22;9219;50.396;8.546;2023-03-14T07:12:14;10.00;99.90
18189;DHT22;9219;50.396;8.546;2023-03-14T07:14:38;10.20;99.90
18189;DHT22;9219;50.396;8.546;2023-03-14T07:17:11;10.20;99.90
18189;DHT22;9219;50.396;8.546;2023-03-14T07:19:43;10.20;99.90
18189;DHT22;9219;50.396;8.546;2023-03-14T07:22:12;10.00;99.90
18189;DHT22;9219;50.396;8.546;2023-03-14T07:25:00;10.00;99.90
18189;DHT22;9219;50.396;8.546;2023-03-14T07:30:23;10.10;99.90
18189;DHT22;9219;50.396;8.546;2023-03-14T07:32:55;10.00;99.90
18189;DHT22;9219;50.396;8.546;2023-03-14T07:35:27;9.90;99.90
18189;DHT22;9219;50.396;8.546;2023-03-14T07:38:05;9.70;99.90
18189;DHT22;9219;50.396;8.546;2023-03-14T07:40:33;10.00;99.90
18189;DHT22;9219;50.396;8.546;2023-03-14T07:43:01;10.10;99.90
18189;DHT22;9219;50.396;8.546;2023-03-14T07:45:29;9.80;99.90
18189;DHT22;9219;50.396;8.546;2023-03-14T07:48:12;9.80;99.90
18189;DHT22;9219;50.396;8.546;2023-03-14T07:55:12;10.00;99.90
18189;DHT22;9219;50.396;8.546;2023-03-14T07:57:51;9.90;99.90
18189;DHT22;9219;50.396;8.546;2023-03-14T08:00:21;10.10;99.90
18189;DHT22;9219;50.396;8.546;2023-03-14T08:02:51;9.90;99.90
18189;DHT22;9219;50.396;8.546;2023-03-14T08:05:18;10.20;99.90
18189;DHT22;9219;50.396;8.546;2023-03-14T08:07:46;10.30;99.90
18189;DHT22;9219;50.396;8.546;2023-03-14T08:10:16;10.40;99.90
18189;DHT22;9219;50.396;8.546;2023-03-14T08:12:50;10.30;99.90
18189;DHT22;9219;50.396;8.546;2023-03-14T08:15:19;10.00;99.90
18189;DHT22;9219;50.396;8.546;2023-03-14T08:17:47;10.00;99.90
18189;DHT22;9219;50.396;8.546;2023-03-14T08:25:32;9.90;99.90
18189;DHT22;9219;50.396;8.546;2023-03-14T08:30:54;10.40;99.90
18189;DHT22;9219;50.396;8.546;2023-03-14T08:33:26;10.50;99.90
18189;DHT22;9219;50.396;8.546;2023-03-14T08:36:00;10.60;99.90
18189;DHT22;9219;50.396;8.546;2023-03-14T08:38:28;10.70;99.90
18189;DHT22;9219;50.396;8.546;2023-03-14T08:40:57;10.30;99.90
18189;DHT22;9219;50.396;8.546;2023-03-14T08:43:33;10.30;99.90
18189;DHT22;9219;50.396;8.546;2023-03-14T08:51:09;10.50;99.90
18189;DHT22;9219;50.396;8.546;2023-03-14T08:53:39;10.60;99.90
18189;DHT22;9219;50.396;8.546;2023-03-14T08:56:14;10.80;99.90
18189;DHT22;9219;50.396;8.546;2023-03-14T08:58:42;10.90;99.90
18189;DHT22;9219;50.396;8.546;2023-03-14T09:01:15;11.00;99.90
18189;DHT22;9219;50.396;8.546;2023-03-14T09:04:04;11.00;99.90
18189;DHT22;9219;50.396;8.546;2023-03-14T09:06:43;11.00;99.90
18189;DHT22;9219;50.396;8.546;2023-03-14T09:09:31;10.90;99.90
18189;DHT22;9219;50.396;8.546;2023-03-14T09:12:15;10.90;99.90
18189;DHT22;9219;50.396;8.546;2023-03-14T09:19:49;11.20;99.90
18189;DHT22;9219;50.396;8.546;2023-03-14T09:22:17;11.40;99.90
18189;DHT22;9219;50.396;8.546;2023-03-14T09:24:46;11.50;99.90
18189;DHT22;9219;50.396;8.546;2023-03-14T09:27:13;11.40;99.90
18189;DHT22;9219;50.396;8.546;2023-03-14T09:29:46;11.20;99.90
18189;DHT22;9219;50.396;8.546;2023-03-14T09:32:16;11.10;99.90
18189;DHT22;9219;50.396;8.546;2023-03-14T09:35:00;11.20;99.90
18189;DHT22;9219;50.396;8.546;2023-03-14T09:37:31;11.20;99.90
18189;DHT22;9219;50.396;8.546;2023-03-14T09:44:50;11.10;99.90
18189;DHT22;9219;50.396;8.546;2023-03-14T09:47:28;11.30;99.90
18189;DHT22;9219;50.396;8.546;2023-03-14T09:49:56;11.20;99.90
18189;DHT22;9219;50.396;8.546;2023-03-14T09:52:26;11.40;99.90
18189;DHT22;9219;50.396;8.546;2023-03-14T09:54:58;11.30;99.90
18189;DHT22;9219;50.396;8.546;2023-03-14T09:57:30;11.40;99.90
18189;DHT22;9219;50.396;8.546;2023-03-14T10:00:17;11.60;99.90
18189;DHT22;9219;50.396;8.546;2023-03-14T10:02:52;11.70;99.90
18189;DHT22;9219;50.396;8.546;2023-03-14T10:08:34;11.50;99.90
18189;DHT22;9219;50.396;8.546;2023-03-14T10:11:02;11.50;99.90
18189;DHT22;9219;50.396;8.546;2023-03-14T10:13:32;11.30;99.90
18189;DHT22;9219;50.396;8.546;2023-03-14T10:16:03;11.20;99.90
18189;DHT22;9219;50.396;8.546;2023-03-14T10:18:34;11.20;99.90
18189;DHT22;9219;50.396;8.546;2023-03-14T10:21:35;11.20;99.90
18189;DHT22;9219;50.396;8.546;2023-03-14T10:24:26;11.30;99.90
18189;DHT22;9219;50.396;8.546;2023-03-14T10:27:04;11.40;99.90
18189;DHT22;9219;50.396;8.546;2023-03-14T10:29:59;11.50;99.90
18189;DHT22;9219;50.396;8.546;2023-03-14T10:37:48;11.40;99.90
18189;DHT22;9219;50.396;8.546;2023-03-14T10:40:30;11.50;99.90
18189;DHT22;9219;50.396;8.546;2023-03-14T10:46:11;11.00;99.90
18189;DHT22;9219;50.396;8.546;2023-03-14T10:48:39;11.00;99.90
18189;DHT22;9219;50.396;8.546;2023-03-14T10:51:10;11.00;99.90
18189;DHT22;9219;50.396;8.546;2023-03-14T10:53:58;10.80;99.90
18189;DHT22;9219;50.396;8.546;2023-03-14T10:56:27;10.80;99.90
18189;DHT22;9219;50.396;8.546;2023-03-14T10:59:20;10.90;99.90
18189;DHT22;9219;50.396;8.546;2023-03-14T11:02:10;11.20;99.90
18189;DHT22;9219;50.396;8.546;2023-03-14T11:05:07;11.10;99.90
18189;DHT22;9219;50.396;8.546;2023-03-14T11:07:41;11.00;99.90
18189;DHT22;9219;50.396;8.546;2023-03-14T11:10:26;11.10;99.90
18189;DHT22;9219;50.396;8.546;2023-03-14T11:13:12;11.30;99.90
18189;DHT22;9219;50.396;8.546;2023-03-14T11:15:57;11.10;99.90
18189;DHT22;9219;50.396;8.546;2023-03-14T11:18:45;11.30;99.90
18189;DHT22;9219;50.396;8.546;2023-03-14T11:28:00;11.50;99.90
18189;DHT22;9219;50.396;8.546;2023-03-14T11:30:41;11.50;99.90
18189;DHT22;9219;50.396;8.546;2023-03-14T11:33:17;11.60;99.90
18189;DHT22;9219;50.396;8.546;2023-03-14T11:35:59;11.50;99.90
18189;DHT22;9219;50.396;8.546;2023-03-14T11:38:32;11.30;99.90
18189;DHT22;9219;50.396;8.546;2023-03-14T11:41:14;10.90;99.90
18189;DHT22;9219;50.396;8.546;2023-03-14T11:44:03;11.10;99.90
18189;DHT22;9219;50.396;8.546;2023-03-14T11:46:39;11.20;99.90
18189;DHT22;9219;50.396;8.546;2023-03-14T11:54:33;8.80;99.90
18189;DHT22;9219;50.396;8.546;2023-03-14T11:57:05;7.40;99.90
18189;DHT22;9219;50.396;8.546;2023-03-14T11:59:47;6.90;99.90
18189;DHT22;9219;50.396;8.546;2023-03-14T12:05:34;6.60;99.90
18189;DHT22;9219;50.396;8.546;2023-03-14T12:08:29;6.60;99.90
18189;DHT22;9219;50.396;8.546;2023-03-14T12:16:39;6.10;99.90
18189;DHT22;9219;50.396;8.546;2023-03-14T12:19:25;5.90;99.90
18189;DHT22;9219;50.396;8.546;2023-03-14T12:25:14;5.90;99.90
18189;DHT22;9219;50.396;8.546;2023-03-14T12:31:37;6.00;99.90
18189;DHT22;9219;50.396;8.546;2023-03-14T12:41:40;6.10;99.90
18189;DHT22;9219;50.396;8.546;2023-03-14T12:44:41;6.10;99.90
18189;DHT22;9219;50.396;8.546;2023-03-14T12:47:52;6.00;99.90
18189;DHT22;9219;50.396;8.546;2023-03-14T12:50:26;6.20;99.90
18189;DHT22;9219;50.396;8.546;2023-03-14T12:56:21;6.20;99.90
18189;DHT22;9219;50.396;8.546;2023-03-14T13:02:27;6.00;99.90
18189;DHT22;9219;50.396;8.546;2023-03-14T13:05:11;6.00;99.90
18189;DHT22;9219;50.396;8.546;2023-03-14T13:08:03;6.00;99.90
18189;DHT22;9219;50.396;8.546;2023-03-14T13:11:08;6.10;99.90
18189;DHT22;9219;50.396;8.546;2023-03-14T13:13:47;6.20;99.90
18189;DHT22;9219;50.396;8.546;2023-03-14T13:16:21;6.20;99.90
18189;DHT22;9219;50.396;8.546;2023-03-14T13:19:02;6.10;99.90
18189;DHT22;9219;50.396;8.546;2023-03-14T13:21:35;5.90;99.90
18189;DHT22;9219;50.396;8.546;2023-03-14T13:29:22;6.00;99.90
18189;DHT22;9219;50.396;8.546;2023-03-14T13:31:51;6.30;99.90
18189;DHT22;9219;50.396;8.546;2023-03-14T13:34:25;6.50;99.90
18189;DHT22;9219;50.396;8.546;2023-03-14T13:37:01;6.60;99.90
18189;DHT22;9219;50.396;8.546;2023-03-14T13:39:39;6.60;99.90
18189;DHT22;9219;50.396;8.546;2023-03-14T13:42:14;6.60;99.90
18189;DHT22;9219;50.396;8.546;2023-03-14T13:44:46;6.60;99.90
18189;DHT22;9219;50.396;8.546;2023-03-14T13:52:40;6.00;99.90
18189;DHT22;9219;50.396;8.546;2023-03-14T13:55:14;5.70;99.90
18189;DHT22;9219;50.396;8.546;2023-03-14T13:57:47;5.80;99.90
18189;DHT22;9219;50.396;8.546;2023-03-14T14:00:25;5.70;99.90
18189;DHT22;9219;50.396;8.546;2023-03-14T14:02:59;5.70;99.90
18189;DHT22;9219;50.396;8.546;2023-03-14T14:05:29;5.70;99.90
18189;DHT22;9219;50.396;8.546;2023-03-14T14:08:30;5.70;99.90
18189;DHT22;9219;50.396;8.546;2023-03-14T14:11:09;5.70;99.90
18189;DHT22;9219;50.396;8.546;2023-03-14T14:17:58;5.70;99.90
18189;DHT22;9219;50.396;8.546;2023-03-14T14:20:32;5.70;99.90
18189;DHT22;9219;50.396;8.546;2023-03-14T14:23:04;5.50;99.90
18189;DHT22;9219;50.396;8.546;2023-03-14T14:25:45;5.50;99.90
18189;DHT22;9219;50.396;8.546;2023-03-14T14:28:22;5.60;99.90
18189;DHT22;9219;50.396;8.546;2023-03-14T14:31:23;5.70;99.90
18189;DHT22;9219;50.396;8.546;2023-03-14T14:34:04;5.70;99.90
18189;DHT22;9219;50.396;8.546;2023-03-14T14:36:38;5.80;99.90
18189;DHT22;9219;50.396;8.546;2023-03-14T14:45:22;5.40;99.90
18189;DHT22;9219;50.396;8.546;2023-03-14T14:47:52;5.50;99.90
18189;DHT22;9219;50.396;8.546;2023-03-14T14:50:29;5.50;99.90
18189;DHT22;9219;50.396;8.546;2023-03-14T14:53:21;5.50;99.90
18189;DHT22;9219;50.396;8.546;2023-03-14T14:56:07;5.70;99.90
18189;DHT22;9219;50.396;8.546;2023-03-14T14:58:39;5.60;99.90
18189;DHT22;9219;50.396;8.546;2023-03-14T15:01:25;5.70;99.90
18189;DHT22;9219;50.396;8.546;2023-03-14T15:04:13;5.80;99.90
18189;DHT22;9219;50.396;8.546;2023-03-14T15:11:55;5.50;99.90
18189;DHT22;9219;50.396;8.546;2023-03-14T15:14:31;5.10;99.90
18189;DHT22;9219;50.396;8.546;2023-03-14T15:17:11;5.10;99.90
18189;DHT22;9219;50.396;8.546;2023-03-14T15:19:44;5.00;99.90
18189;DHT22;9219;50.396;8.546;2023-03-14T15:22:16;4.90;99.90
18189;DHT22;9219;50.396;8.546;2023-03-14T15:24:50;4.80;99.90
18189;DHT22;9219;50.396;8.546;2023-03-14T15:27:30;4.70;99.90
18189;DHT22;9219;50.396;8.546;2023-03-14T15:30:19;4.80;99.90
18189;DHT22;9219;50.396;8.546;2023-03-14T15:38:45;4.90;99.90
18189;DHT22;9219;50.396;8.546;2023-03-14T15:41:28;5.10;99.90
18189;DHT22;9219;50.396;8.546;2023-03-14T15:44:14;5.20;99.90
18189;DHT22;9219;50.396;8.546;2023-03-14T15:46:47;5.00;99.90
18189;DHT22;9219;50.396;8.546;2023-03-14T15:49:19;5.40;99.90
18189;DHT22;9219;50.396;8.546;2023-03-14T15:51:52;5.30;99.90
18189;DHT22;9219;50.396;8.546;2023-03-14T15:54:28;5.40;99.90
18189;DHT22;9219;50.396;8.546;2023-03-14T15:57:03;5.10;99.90
18189;DHT22;9219;50.396;8.546;2023-03-14T16:02:36;4.90;99.90
18189;DHT22;9219;50.396;8.546;2023-03-14T16:05:09;5.00;99.90
18189;DHT22;9219;50.396;8.546;2023-03-14T16:07:38;4.80;99.90
18189;DHT22;9219;50.396;8.546;2023-03-14T16:10:13;4.70;99.90
18189;DHT22;9219;50.396;8.546;2023-03-14T16:13:01;4.70;99.90
18189;DHT22;9219;50.396;8.546;2023-03-14T16:15:39;4.60;99.90
18189;DHT22;9219;50.396;8.546;2023-03-14T16:18:14;4.50;99.90
18189;DHT22;9219;50.396;8.546;2023-03-14T16:26:07;4.40;99.90
18189;DHT22;9219;50.396;8.546;2023-03-14T16:28:40;4.70;99.90
18189;DHT22;9219;50.396;8.546;2023-03-14T16:31:13;4.90;99.90
18189;DHT22;9219;50.396;8.546;2023-03-14T16:33:45;4.70;99.90
18189;DHT22;9219;50.396;8.546;2023-03-14T16:36:20;4.50;99.90
18189;DHT22;9219;50.396;8.546;2023-03-14T16:39:10;4.40;99.90
18189;DHT22;9219;50.396;8.546;2023-03-14T16:41:50;4.30;99.90
18189;DHT22;9219;50.396;8.546;2023-03-14T16:49:53;4.00;99.90
18189;DHT22;9219;50.396;8.546;2023-03-14T16:52:31;3.90;99.90
18189;DHT22;9219;50.396;8.546;2023-03-14T16:55:07;3.80;99.90
18189;DHT22;9219;50.396;8.546;2023-03-14T16:57:37;3.80;99.90
18189;DHT22;9219;50.396;8.546;2023-03-14T17:00:09;3.80;99.90
18189;DHT22;9219;50.396;8.546;2023-03-14T17:03:00;4.10;99.90
18189;DHT22;9219;50.396;8.546;2023-03-14T17:05:55;4.20;99.90
18189;DHT22;9219;50.396;8.546;2023-03-14T17:08:45;4.30;99.90
18189;DHT22;9219;50.396;8.546;2023-03-14T17:18:59;4.30;99.90
18189;DHT22;9219;50.396;8.546;2023-03-14T17:22:42;4.30;99.90
18189;DHT22;9219;50.396;8.546;2023-03-14T17:25:17;4.30;99.90
18189;DHT22;9219;50.396;8.546;2023-03-14T17:27:51;4.20;99.90
18189;DHT22;9219;50.396;8.546;2023-03-14T17:30:21;4.10;99.90
18189;DHT22;9219;50.396;8.546;2023-03-14T17:33:13;4.00;99.90
18189;DHT22;9219;50.396;8.546;2023-03-14T17:36:13;3.90;99.90
18189;DHT22;9219;50.396;8.546;2023-03-14T17:46:43;3.80;99.90
18189;DHT22;9219;50.396;8.546;2023-03-14T17:49:14;3.70;99.90
18189;DHT22;9219;50.396;8.546;2023-03-14T17:52:05;3.70;99.90
18189;DHT22;9219;50.396;8.546;2023-03-14T17:54:37;3.60;99.90
18189;DHT22;9219;50.396;8.546;2023-03-14T17:57:24;3.50;99.90
18189;DHT22;9219;50.396;8.546;2023-03-14T18:00:00;3.50;99.90
18189;DHT22;9219;50.396;8.546;2023-03-14T18:02:46;3.50;99.90
18189;DHT22;9219;50.396;8.546;2023-03-14T18:05:26;3.50;99.90
18189;DHT22;9219;50.396;8.546;2023-03-14T18:13:32;3.40;99.90
18189;DHT22;9219;50.396;8.546;2023-03-14T18:16:09;3.60;99.90
18189;DHT22;9219;50.396;8.546;2023-03-14T18:18:48;3.90;99.90
18189;DHT22;9219;50.396;8.546;2023-03-14T18:21:43;3.70;99.90
18189;DHT22;9219;50.396;8.546;2023-03-14T18:24:21;3.50;99.90
18189;DHT22;9219;50.396;8.546;2023-03-14T18:27:22;3.30;99.90
18189;DHT22;9219;50.396;8.546;2023-03-14T18:30:01;3.30;99.90
18189;DHT22;9219;50.396;8.546;2023-03-14T18:32:39;3.40;99.90
18189;DHT22;9219;50.396;8.546;2023-03-14T18:40:33;3.30;99.90
18189;DHT22;9219;50.396;8.546;2023-03-14T18:43:35;3.10;99.90
18189;DHT22;9219;50.396;8.546;2023-03-14T18:46:15;3.20;99.90
18189;DHT22;9219;50.396;8.546;2023-03-14T18:48:48;3.10;99.90
18189;DHT22;9219;50.396;8.546;2023-03-14T18:51:32;3.00;99.90
18189;DHT22;9219;50.396;8.546;2023-03-14T18:54:02;2.90;99.90
18189;DHT22;9219;50.396;8.546;2023-03-14T18:56:45;2.90;99.90
18189;DHT22;9219;50.396;8.546;2023-03-14T18:59:23;3.00;99.90
18189;DHT22;9219;50.396;8.546;2023-03-14T19:07:03;2.80;99.90
18189;DHT22;9219;50.396;8.546;2023-03-14T19:09:32;2.90;99.90
18189;DHT22;9219;50.396;8.546;2023-03-14T19:12:24;2.80;99.90
18189;DHT22;9219;50.396;8.546;2023-03-14T19:15:00;3.10;99.90
18189;DHT22;9219;50.396;8.546;2023-03-14T19:17:50;3.00;99.90
18189;DHT22;9219;50.396;8.546;2023-03-14T19:20:33;3.00;99.90
18189;DHT22;9219;50.396;8.546;2023-03-14T19:23:12;3.10;99.90
18189;DHT22;9219;50.396;8.546;2023-03-14T19:26:08;3.00;99.90
18189;DHT22;9219;50.396;8.546;2023-03-14T19:47:22;3.30;99.90
18189;DHT22;9219;50.396;8.546;2023-03-14T19:54:01;3.60;99.90
18189;DHT22;9219;50.396;8.546;2023-03-14T19:56:40;3.50;99.90
18189;DHT22;9219;50.396;8.546;2023-03-14T19:59:17;3.30;99.90
18189;DHT22;9219;50.396;8.546;2023-03-14T20:01:51;3.30;99.90
18189;DHT22;9219;50.396;8.546;2023-03-14T20:05:14;3.30;99.90
18189;DHT22;9219;50.396;8.546;2023-03-14T20:08:04;3.30;99.90
18189;DHT22;9219;50.396;8.546;2023-03-14T20:11:09;3.30;99.90
18189;DHT22;9219;50.396;8.546;2023-03-14T20:13:57;3.20;99.90
18189;DHT22;9219;50.396;8.546;2023-03-14T20:17:13;3.10;99.90
18189;DHT22;9219;50.396;8.546;2023-03-14T20:25:27;2.80;99.90
18189;DHT22;9219;50.396;8.546;2023-03-14T20:28:20;3.00;99.90
18189;DHT22;9219;50.396;8.546;2023-03-14T20:30:55;3.10;99.90
18189;DHT22;9219;50.396;8.546;2023-03-14T20:33:29;3.20;99.90
18189;DHT22;9219;50.396;8.546;2023-03-14T20:36:03;3.20;99.90
18189;DHT22;9219;50.396;8.546;2023-03-14T20:38:57;3.30;99.90
18189;DHT22;9219;50.396;8.546;2023-03-14T20:41:39;3.20;99.90
18189;DHT22;9219;50.396;8.546;2023-03-14T20:44:24;3.40;99.90
18189;DHT22;9219;50.396;8.546;2023-03-14T20:47:14;3.30;99.90
18189;DHT22;9219;50.396;8.546;2023-03-14T20:55:17;3.00;99.90
18189;DHT22;9219;50.396;8.546;2023-03-14T20:57:50;3.00;99.90
18189;DHT22;9219;50.396;8.546;2023-03-14T21:00:25;2.90;99.90
18189;DHT22;9219;50.396;8.546;2023-03-14T21:03:06;2.90;99.90
18189;DHT22;9219;50.396;8.546;2023-03-14T21:05:52;2.90;99.90
18189;DHT22;9219;50.396;8.546;2023-03-14T21:08:45;2.70;99.90
18189;DHT22;9219;50.396;8.546;2023-03-14T21:11:36;2.80;99.90
18189;DHT22;9219;50.396;8.546;2023-03-14T21:17:43;2.90;99.90
18189;DHT22;9219;50.396;8.546;2023-03-14T21:20:37;3.00;99.90
18189;DHT22;9219;50.396;8.546;2023-03-14T21:27:18;2.90;99.90
18189;DHT22;9219;50.396;8.546;2023-03-14T21:31:45;3.00;99.90
18189;DHT22;9219;50.396;8.546;2023-03-14T21:33:38;3.00;99.90
18189;DHT22;9219;50.396;8.546;2023-03-14T21:36:20;3.00;99.90
18189;DHT22;9219;50.396;8.546;2023-03-14T21:42:12;2.90;99.90
18189;DHT22;9219;50.396;8.546;2023-03-14T21:44:51;2.80;99.90
18189;DHT22;9219;50.396;8.546;2023-03-14T22:01:12;2.40;99.90
18189;DHT22;9219;50.396;8.546;2023-03-14T22:04:13;2.60;99.90